Pagrindinis puslapis
METAR-TAF:

METAR-TAF

Oro uostai :

Abu Dabis, Jungtiniai Arabų Emyratai

platuma: 24-26N, ilguma: 054-39E, Aukštis: 16 m

Dabartinis oras

Ataskaita buvo paskelbta 34 minutes, ne 11:00 UTC
Vėjas 12 kt iš Šiaurės Vakarų
Temperatūra 36°C
Drėgmė 33%
Slėgis 1012 hPa
Matomumas 10 km arba daugiau
nėra debesų žemiau 1500 m ir nėra kamuolinių lietaus debesų

METAR: OMAA 141100Z 32012KT CAVOK 36/17 Q1012 NOSIG

Laikas: 15:34 (11:34 UTC)

Prognozė

Ataskaita buvo paskelbta 6 valandos ir 34 minutes, ne 05:00 UTC
Prognozė galioja nuo 14 metu 06 UTC su 15 metu 12 UTC
Vėjas 9 kt iš Pietų
Matomumas: 8000 m
Tapsmas
nuo 14 metu 08 UTC su 14 metu 10 UTC
Vėjas 12 kt iš Šiaurės/Šiaurės Vakarų
Tapsmas
nuo 14 metu 18 UTC su 14 metu 20 UTC
Vėjas 8 kt iš Pietryčių
Tapsmas
nuo 15 metu 08 UTC su 15 metu 10 UTC
Vėjas 11 kt iš Šiaurės/Šiaurės Vakarų

TAF: OMAA 140500Z 1406/1512 18009KT 8000 NSC BECMG 1408/1410 33012KT BECMG 1418/1420 14008KT BECMG 1508/1510 34011KT

Orai ataskaitas ir orų prognozės (METAR, TAF).

turimą stotys yra geltonos ir raudonos taškus žemėlapyje.

Perkelti pele per norėdami pamatyti stoties vardą.

Tada spustelėkite, norėdami matyti oro stebėjimo ir prognozės.

Norėdami pakeisti žemėlapį: spustelėkite ant žalios mygtukų su juodo kryžiaus žemyn,; žalią mygtuką su brūkšneliu, jei norite nutolinti; arba žalių rodyklių gretimoms žemėlapius.


METAR-TAF: